createdAt,value
2022-10-10T00:00:58.721Z,100.00
2022-10-10T00:03:25.524Z,100.00
2022-10-10T00:05:52.043Z,100.00
2022-10-10T00:08:18.517Z,100.00
2022-10-10T00:10:45.007Z,100.00
2022-10-10T00:13:12.374Z,100.00
2022-10-10T00:15:38.876Z,100.00
2022-10-10T00:18:08.955Z,100.00
2022-10-10T00:20:37.990Z,100.00
2022-10-10T00:23:04.807Z,100.00
2022-10-10T00:25:31.380Z,100.00
2022-10-10T00:28:01.649Z,100.00
2022-10-10T00:30:28.441Z,100.00
2022-10-10T00:32:54.991Z,100.00
2022-10-10T00:35:21.534Z,100.00
2022-10-10T00:37:48.015Z,100.00
2022-10-10T00:40:14.704Z,100.00
2022-10-10T00:42:41.259Z,100.00
2022-10-10T00:45:31.674Z,100.00
2022-10-10T00:48:24.268Z,100.00
2022-10-10T00:50:52.582Z,100.00
2022-10-10T00:53:23.417Z,100.00
2022-10-10T00:55:50.862Z,100.00
2022-10-10T00:58:18.894Z,100.00
2022-10-10T01:00:45.584Z,100.00
2022-10-10T01:03:12.327Z,100.00
2022-10-10T01:05:41.646Z,100.00
2022-10-10T01:08:11.527Z,100.00
2022-10-10T01:11:10.418Z,100.00
2022-10-10T01:13:59.718Z,100.00
2022-10-10T01:16:57.355Z,100.00
2022-10-10T01:19:23.787Z,100.00
2022-10-10T01:22:25.461Z,100.00
2022-10-10T01:25:10.934Z,100.00
2022-10-10T01:27:51.941Z,100.00
2022-10-10T01:30:22.238Z,100.00
2022-10-10T01:32:53.473Z,100.00
2022-10-10T01:35:45.019Z,100.00
2022-10-10T01:38:35.358Z,100.00
2022-10-10T01:41:19.967Z,100.00
2022-10-10T01:43:46.610Z,100.00
2022-10-10T01:46:16.542Z,100.00
2022-10-10T01:48:46.236Z,100.00
2022-10-10T01:51:37.677Z,100.00
2022-10-10T01:54:25.884Z,100.00
2022-10-10T01:57:13.561Z,100.00
2022-10-10T02:00:10.793Z,100.00
2022-10-10T02:02:52.251Z,100.00
2022-10-10T02:05:39.199Z,100.00
2022-10-10T02:08:24.078Z,100.00
2022-10-10T02:10:55.565Z,100.00
2022-10-10T02:13:27.424Z,100.00
2022-10-10T02:15:57.395Z,100.00
2022-10-10T02:18:29.150Z,100.00
2022-10-10T02:20:56.126Z,100.00
2022-10-10T02:23:22.895Z,100.00
2022-10-10T02:25:55.242Z,100.00
2022-10-10T02:28:31.033Z,100.00
2022-10-10T02:31:01.301Z,100.00
2022-10-10T02:33:36.905Z,100.00
2022-10-10T02:36:04.233Z,100.00
2022-10-10T02:38:31.147Z,100.00
2022-10-10T02:41:03.992Z,100.00
2022-10-10T02:43:34.693Z,100.00
2022-10-10T02:46:04.547Z,100.00
2022-10-10T02:48:31.049Z,100.00
2022-10-10T02:50:57.800Z,100.00
2022-10-10T02:53:24.695Z,100.00
2022-10-10T02:55:51.192Z,100.00
2022-10-10T02:58:18.879Z,100.00
2022-10-10T03:00:45.421Z,100.00
2022-10-10T03:03:12.071Z,100.00
2022-10-10T03:05:38.614Z,100.00
2022-10-10T03:08:10.649Z,100.00
2022-10-10T03:10:38.471Z,100.00
2022-10-10T03:13:04.958Z,100.00
2022-10-10T03:15:31.545Z,100.00
2022-10-10T03:17:58.038Z,100.00
2022-10-10T03:20:24.550Z,100.00
2022-10-10T03:22:51.220Z,100.00
2022-10-10T03:25:17.894Z,100.00
2022-10-10T03:27:44.506Z,100.00
2022-10-10T03:30:11.590Z,100.00
2022-10-10T03:32:38.085Z,100.00
2022-10-10T03:35:04.909Z,100.00
2022-10-10T03:37:34.607Z,100.00
2022-10-10T03:40:01.087Z,100.00
2022-10-10T03:42:27.626Z,100.00
2022-10-10T03:44:54.147Z,100.00
2022-10-10T03:47:20.638Z,100.00
2022-10-10T03:49:50.033Z,100.00
2022-10-10T03:52:18.583Z,100.00
2022-10-10T03:54:45.068Z,100.00
2022-10-10T03:57:12.705Z,100.00
2022-10-10T03:59:39.207Z,100.00
2022-10-10T04:02:05.689Z,100.00
2022-10-10T04:04:32.208Z,100.00
2022-10-10T04:06:58.798Z,100.00
2022-10-10T04:09:25.407Z,100.00
2022-10-10T04:11:51.893Z,100.00
2022-10-10T04:14:19.044Z,100.00
2022-10-10T04:16:45.538Z,100.00
2022-10-10T04:19:12.080Z,100.00
2022-10-10T04:21:38.583Z,100.00
2022-10-10T04:24:05.308Z,100.00
2022-10-10T04:26:31.901Z,100.00
2022-10-10T04:28:58.829Z,100.00
2022-10-10T04:31:25.365Z,100.00
2022-10-10T04:33:51.935Z,100.00
2022-10-10T04:36:21.801Z,100.00
2022-10-10T04:38:50.933Z,100.00
2022-10-10T04:41:17.558Z,100.00
2022-10-10T04:43:44.053Z,100.00
2022-10-10T04:46:10.820Z,100.00
2022-10-10T04:48:37.782Z,100.00
2022-10-10T04:51:04.574Z,100.00
2022-10-10T04:53:31.146Z,100.00
2022-10-10T04:55:57.657Z,100.00
2022-10-10T04:58:24.172Z,100.00
2022-10-10T05:00:55.024Z,100.00
2022-10-10T05:03:23.358Z,100.00
2022-10-10T05:05:53.763Z,100.00
2022-10-10T05:08:20.801Z,100.00
2022-10-10T05:10:48.096Z,100.00
2022-10-10T05:13:15.991Z,100.00
2022-10-10T05:15:43.106Z,100.00
2022-10-10T05:18:09.636Z,100.00
2022-10-10T05:20:36.486Z,100.00
2022-10-10T05:23:03.530Z,100.00
2022-10-10T05:25:30.220Z,100.00
2022-10-10T05:27:56.821Z,100.00
2022-10-10T05:30:23.317Z,100.00
2022-10-10T05:32:50.098Z,100.00
2022-10-10T05:35:17.599Z,100.00
2022-10-10T05:37:44.095Z,100.00
2022-10-10T05:40:11.387Z,100.00
2022-10-10T05:42:37.894Z,100.00
2022-10-10T05:45:04.690Z,100.00
2022-10-10T05:47:31.277Z,100.00
2022-10-10T05:49:57.786Z,100.00
2022-10-10T05:52:24.302Z,100.00
2022-10-10T05:54:50.828Z,100.00
2022-10-10T05:57:17.358Z,100.00
2022-10-10T05:59:43.946Z,100.00
2022-10-10T06:02:12.694Z,100.00
2022-10-10T06:04:39.435Z,100.00
2022-10-10T06:07:06.033Z,100.00
2022-10-10T06:09:32.753Z,100.00
2022-10-10T06:11:59.239Z,100.00
2022-10-10T06:14:25.787Z,100.00
2022-10-10T06:16:54.601Z,100.00
2022-10-10T06:19:21.449Z,100.00
2022-10-10T06:21:49.283Z,100.00
2022-10-10T06:24:16.084Z,100.00
2022-10-10T06:26:42.913Z,100.00
2022-10-10T06:29:09.739Z,100.00
2022-10-10T06:31:39.563Z,100.00
2022-10-10T06:34:06.919Z,100.00
2022-10-10T06:36:33.420Z,100.00
2022-10-10T06:38:59.974Z,100.00
2022-10-10T06:41:26.570Z,100.00
2022-10-10T06:43:54.714Z,100.00
2022-10-10T06:46:21.240Z,100.00
2022-10-10T06:48:47.849Z,100.00
2022-10-10T06:51:15.867Z,100.00
2022-10-10T06:53:43.099Z,100.00
2022-10-10T06:56:17.999Z,100.00
2022-10-10T06:58:44.828Z,100.00
2022-10-10T07:01:11.903Z,100.00
2022-10-10T07:03:38.803Z,100.00
2022-10-10T07:06:08.910Z,100.00
2022-10-10T07:08:35.423Z,100.00
2022-10-10T07:11:02.594Z,100.00
2022-10-10T07:13:29.160Z,100.00
2022-10-10T07:15:55.739Z,100.00
2022-10-10T07:18:22.755Z,100.00
2022-10-10T07:20:51.992Z,99.88
2022-10-10T07:23:18.558Z,98.21
2022-10-10T07:25:48.154Z,95.68
2022-10-10T07:28:14.809Z,92.71
2022-10-10T07:30:43.852Z,89.76
2022-10-10T07:33:14.376Z,88.55
2022-10-10T07:35:43.460Z,85.69
2022-10-10T07:38:12.883Z,83.10
2022-10-10T07:40:41.506Z,82.57
2022-10-10T07:43:08.100Z,81.15
2022-10-10T07:45:37.409Z,78.67
2022-10-10T07:48:04.655Z,76.61
2022-10-10T07:50:31.179Z,74.96
2022-10-10T07:53:00.094Z,74.64
2022-10-10T07:55:29.470Z,74.73
2022-10-10T07:57:56.273Z,75.44
2022-10-10T08:00:36.341Z,72.18
2022-10-10T08:03:03.054Z,71.41
2022-10-10T08:05:32.345Z,70.17
2022-10-10T08:07:58.845Z,68.33
2022-10-10T08:10:28.844Z,66.42
2022-10-10T08:12:55.894Z,64.84
2022-10-10T08:15:22.442Z,64.61
2022-10-10T08:17:49.387Z,65.18
2022-10-10T08:20:16.548Z,63.00
2022-10-10T08:22:43.047Z,61.98
2022-10-10T08:25:09.849Z,60.05
2022-10-10T08:27:36.390Z,59.97
2022-10-10T08:30:03.134Z,60.75
2022-10-10T08:32:32.120Z,61.64
2022-10-10T08:34:58.657Z,59.93
2022-10-10T08:37:33.822Z,57.79
2022-10-10T08:40:03.173Z,57.76
2022-10-10T08:42:50.437Z,57.15
2022-10-10T08:45:39.412Z,57.77
2022-10-10T08:48:16.440Z,55.52
2022-10-10T08:50:51.687Z,55.37
2022-10-10T08:53:28.824Z,52.84
2022-10-10T08:55:58.980Z,52.53
2022-10-10T08:58:34.611Z,52.10
2022-10-10T09:01:30.182Z,51.10
2022-10-10T09:04:04.887Z,49.67
2022-10-10T09:07:05.850Z,50.40
2022-10-10T09:10:01.009Z,50.00
2022-10-10T09:12:42.205Z,50.69
2022-10-10T09:15:16.706Z,50.55
2022-10-10T09:18:25.665Z,48.88
2022-10-10T09:21:22.512Z,47.79
2022-10-10T09:23:57.559Z,47.57
2022-10-10T09:26:31.386Z,47.96
2022-10-10T09:29:08.563Z,46.28
2022-10-10T09:31:51.413Z,45.29
2022-10-10T09:34:35.903Z,44.43
2022-10-10T09:37:04.007Z,45.15
2022-10-10T09:39:57.310Z,46.70
2022-10-10T09:42:38.766Z,45.31
2022-10-10T09:45:21.149Z,44.69
2022-10-10T09:47:52.151Z,42.47
2022-10-10T09:50:19.365Z,43.06
2022-10-10T09:52:47.849Z,44.24
2022-10-10T09:55:26.804Z,44.53
2022-10-10T09:57:58.758Z,44.97
2022-10-10T10:00:35.891Z,44.77
2022-10-10T10:03:12.403Z,45.60
2022-10-10T10:05:40.767Z,45.08
2022-10-10T10:08:38.744Z,45.53
2022-10-10T10:11:06.001Z,46.57
2022-10-10T10:13:36.066Z,46.58
2022-10-10T10:16:14.229Z,46.75
2022-10-10T10:18:46.739Z,46.26
2022-10-10T10:21:23.441Z,45.86
2022-10-10T10:23:51.952Z,46.06
2022-10-10T10:26:30.690Z,47.14
2022-10-10T10:29:00.441Z,45.99
2022-10-10T10:31:45.108Z,44.33
2022-10-10T10:34:38.323Z,46.61
2022-10-10T10:37:18.953Z,46.76
2022-10-10T10:40:30.371Z,47.84
2022-10-10T10:43:29.324Z,49.33
2022-10-10T10:45:58.229Z,47.87
2022-10-10T10:48:48.391Z,49.32
2022-10-10T10:51:59.881Z,51.04
2022-10-10T10:55:02.713Z,51.04
2022-10-10T10:58:00.069Z,50.62
2022-10-10T11:05:17.531Z,46.56
2022-10-10T11:07:18.421Z,47.02
2022-10-10T11:09:52.971Z,46.18
2022-10-10T11:12:31.595Z,45.19
2022-10-10T11:15:04.446Z,43.80
2022-10-10T11:17:40.157Z,42.64
2022-10-10T11:20:46.608Z,38.98
2022-10-10T11:23:25.044Z,41.84
2022-10-10T11:26:07.616Z,39.75
2022-10-10T11:28:50.585Z,41.03
2022-10-10T11:31:24.033Z,39.64
2022-10-10T11:34:02.446Z,40.69
2022-10-10T11:36:31.896Z,38.85
2022-10-10T11:39:22.994Z,40.13
2022-10-10T11:41:53.840Z,39.56
2022-10-10T11:44:37.854Z,38.60
2022-10-10T11:47:13.743Z,37.52
2022-10-10T11:50:03.217Z,36.04
2022-10-10T11:52:51.629Z,35.36
2022-10-10T11:55:31.445Z,35.40
2022-10-10T11:58:33.475Z,37.85
2022-10-10T12:01:07.030Z,37.20
2022-10-10T12:03:33.640Z,37.95
2022-10-10T12:06:11.241Z,36.25
2022-10-10T12:08:42.129Z,36.59
2022-10-10T12:11:21.500Z,37.03
2022-10-10T12:13:54.930Z,37.96
2022-10-10T12:16:28.210Z,37.54
2022-10-10T12:19:01.430Z,35.03
2022-10-10T12:21:30.536Z,36.58
2022-10-10T12:24:14.132Z,36.24
2022-10-10T12:26:52.811Z,36.61
2022-10-10T12:29:57.574Z,36.38
2022-10-10T12:32:41.281Z,37.52
2022-10-10T12:35:35.857Z,38.13
2022-10-10T12:38:05.753Z,36.76
2022-10-10T12:40:33.728Z,38.30
2022-10-10T12:43:23.800Z,37.32
2022-10-10T12:46:17.296Z,38.27
2022-10-10T12:48:44.887Z,38.99
2022-10-10T12:51:21.720Z,38.67
2022-10-10T12:53:54.364Z,37.94
2022-10-10T12:56:37.438Z,36.28
2022-10-10T12:59:06.547Z,37.43
2022-10-10T13:01:36.936Z,38.01
2022-10-10T13:04:03.817Z,38.73
2022-10-10T13:06:40.047Z,37.00
2022-10-10T13:09:11.884Z,36.61
2022-10-10T13:11:56.263Z,35.64
2022-10-10T13:14:23.957Z,34.13
2022-10-10T13:16:50.510Z,33.92
2022-10-10T13:19:22.836Z,33.16
2022-10-10T13:21:51.976Z,33.02
2022-10-10T13:24:22.586Z,31.85
2022-10-10T13:26:52.480Z,32.70
2022-10-10T13:29:37.133Z,32.08
2022-10-10T13:32:07.271Z,31.26
2022-10-10T13:34:42.534Z,32.60
2022-10-10T13:37:17.578Z,32.50
2022-10-10T13:39:44.421Z,32.06
2022-10-10T13:42:38.696Z,33.74
2022-10-10T13:45:30.745Z,35.65
2022-10-10T13:48:03.463Z,34.12
2022-10-10T13:50:55.749Z,32.77
2022-10-10T13:53:31.026Z,34.63
2022-10-10T13:56:02.199Z,34.59
2022-10-10T13:58:38.992Z,33.72
2022-10-10T14:01:06.010Z,34.98
2022-10-10T14:03:33.878Z,35.05
2022-10-10T14:06:04.180Z,33.43
2022-10-10T14:08:33.714Z,34.99
2022-10-10T14:11:03.068Z,36.86
2022-10-10T14:13:33.693Z,38.34
2022-10-10T14:16:23.202Z,39.49
2022-10-10T14:18:50.015Z,39.24
2022-10-10T14:21:16.662Z,40.04
2022-10-10T14:23:43.517Z,40.66
2022-10-10T14:26:14.876Z,41.20
2022-10-10T14:28:41.612Z,41.78
2022-10-10T14:31:08.241Z,41.52
2022-10-10T14:33:35.014Z,41.76
2022-10-10T14:36:03.748Z,42.04
2022-10-10T14:38:30.592Z,42.79
2022-10-10T14:40:57.200Z,42.37
2022-10-10T14:43:24.505Z,42.00
2022-10-10T14:45:52.771Z,41.25
2022-10-10T14:48:19.683Z,40.70
2022-10-10T14:50:48.126Z,39.46
2022-10-10T14:53:15.849Z,39.35
2022-10-10T14:55:43.787Z,39.66
2022-10-10T14:58:15.166Z,41.22
2022-10-10T15:00:41.903Z,42.91
2022-10-10T15:03:08.484Z,43.83
2022-10-10T15:05:35.162Z,45.34
2022-10-10T15:08:03.921Z,46.32
2022-10-10T15:10:34.519Z,47.49
2022-10-10T15:13:01.571Z,48.28
2022-10-10T15:15:28.137Z,48.93
2022-10-10T15:17:56.538Z,49.58
2022-10-10T15:20:30.441Z,50.41
2022-10-10T15:23:02.217Z,51.98
2022-10-10T15:25:33.657Z,52.15
2022-10-10T15:28:05.841Z,51.21
2022-10-10T15:30:32.471Z,51.94
2022-10-10T15:32:58.996Z,52.06
2022-10-10T15:35:26.359Z,52.31
2022-10-10T15:37:53.330Z,52.34
2022-10-10T15:40:24.262Z,51.95
2022-10-10T15:42:51.191Z,51.96
2022-10-10T15:45:37.413Z,52.08
2022-10-10T15:48:08.898Z,52.49
2022-10-10T15:50:42.033Z,51.95
2022-10-10T15:53:08.742Z,52.74
2022-10-10T15:55:42.132Z,53.70
2022-10-10T15:58:08.702Z,53.76
2022-10-10T16:00:38.555Z,53.80
2022-10-10T16:03:07.582Z,54.11
2022-10-10T16:05:41.936Z,55.40
2022-10-10T16:08:12.203Z,55.92
2022-10-10T16:10:43.269Z,56.86
2022-10-10T16:13:10.220Z,57.94
2022-10-10T16:15:39.846Z,57.72
2022-10-10T16:18:09.291Z,58.42
2022-10-10T16:20:39.245Z,59.28
2022-10-10T16:23:07.968Z,60.47
2022-10-10T16:25:34.580Z,61.75
2022-10-10T16:28:01.212Z,61.35
2022-10-10T16:30:27.823Z,61.39
2022-10-10T16:32:54.402Z,61.03
2022-10-10T16:35:21.004Z,62.16
2022-10-10T16:37:47.561Z,61.91
2022-10-10T16:40:14.230Z,62.06
2022-10-10T16:42:40.763Z,62.97
2022-10-10T16:45:11.255Z,63.25
2022-10-10T16:47:40.980Z,63.61
2022-10-10T16:50:09.425Z,63.96
2022-10-10T16:52:40.740Z,64.94
2022-10-10T16:55:12.251Z,65.68
2022-10-10T16:57:40.607Z,66.87
2022-10-10T17:00:12.682Z,66.98
2022-10-10T17:02:42.537Z,68.02
2022-10-10T17:05:09.796Z,68.40
2022-10-10T17:07:36.404Z,69.27
2022-10-10T17:10:02.991Z,70.08
2022-10-10T17:12:29.522Z,70.58
2022-10-10T17:14:55.991Z,71.02
2022-10-10T17:17:22.798Z,71.81
2022-10-10T17:19:49.366Z,72.52
2022-10-10T17:22:16.431Z,73.04
2022-10-10T17:24:43.068Z,73.25
2022-10-10T17:27:09.592Z,73.63
2022-10-10T17:29:36.133Z,74.81
2022-10-10T17:32:06.354Z,75.08
2022-10-10T17:34:33.566Z,79.45
2022-10-10T17:37:00.053Z,76.43
2022-10-10T17:39:26.562Z,75.86
2022-10-10T17:41:53.192Z,76.01
2022-10-10T17:44:19.997Z,76.45
2022-10-10T17:46:46.621Z,76.54
2022-10-10T17:49:14.194Z,76.78
2022-10-10T17:51:41.796Z,77.11
2022-10-10T17:54:13.476Z,76.99
2022-10-10T17:56:44.655Z,75.35
2022-10-10T17:59:12.679Z,75.30
2022-10-10T18:01:43.458Z,76.72
2022-10-10T18:04:14.798Z,75.93
2022-10-10T18:06:41.857Z,75.66
2022-10-10T18:09:10.495Z,75.73
2022-10-10T18:11:37.077Z,76.62
2022-10-10T18:14:04.423Z,76.94
2022-10-10T18:16:34.344Z,76.83
2022-10-10T18:19:01.945Z,77.09
2022-10-10T18:21:28.759Z,77.25
2022-10-10T18:23:55.446Z,77.36
2022-10-10T18:26:25.952Z,78.03
2022-10-10T18:28:55.694Z,78.99
2022-10-10T18:31:28.074Z,78.95
2022-10-10T18:33:54.599Z,79.86
2022-10-10T18:36:24.394Z,81.23
2022-10-10T18:38:51.112Z,81.40
2022-10-10T18:41:22.946Z,81.64
2022-10-10T18:43:51.111Z,82.28
2022-10-10T18:46:19.824Z,83.67
2022-10-10T18:48:51.491Z,84.11
2022-10-10T18:51:24.513Z,84.37
2022-10-10T18:53:54.922Z,84.50
2022-10-10T18:56:24.724Z,85.28
2022-10-10T18:58:55.832Z,85.34
2022-10-10T19:01:25.061Z,86.32
2022-10-10T19:03:53.427Z,86.27
2022-10-10T19:06:20.512Z,87.16
2022-10-10T19:08:46.998Z,87.74
2022-10-10T19:11:24.553Z,88.06
2022-10-10T19:13:51.191Z,88.92
2022-10-10T19:16:18.417Z,88.91
2022-10-10T19:18:46.139Z,89.38
2022-10-10T19:21:18.456Z,89.84
2022-10-10T19:23:47.532Z,90.02
2022-10-10T19:26:18.039Z,90.15
2022-10-10T19:28:47.866Z,90.62
2022-10-10T19:31:18.785Z,90.96
2022-10-10T19:33:51.344Z,91.09
2022-10-10T19:36:18.250Z,90.79
2022-10-10T19:38:47.946Z,91.28
2022-10-10T19:41:16.674Z,91.37
2022-10-10T19:43:48.008Z,91.52
2022-10-10T19:46:19.172Z,91.03
2022-10-10T19:48:54.867Z,91.15
2022-10-10T19:51:21.535Z,91.83
2022-10-10T19:53:48.598Z,92.27
2022-10-10T19:56:25.662Z,92.78
2022-10-10T19:58:54.619Z,92.96
2022-10-10T20:01:28.230Z,92.97
2022-10-10T20:03:56.752Z,92.60
2022-10-10T20:06:23.345Z,92.65
2022-10-10T20:08:50.405Z,92.87
2022-10-10T20:11:19.842Z,92.97
2022-10-10T20:13:48.916Z,93.24
2022-10-10T20:16:16.543Z,93.28
2022-10-10T20:18:46.713Z,92.94
2022-10-10T20:21:19.728Z,92.69
2022-10-10T20:23:47.375Z,92.87
2022-10-10T20:26:22.415Z,93.26
2022-10-10T20:28:51.286Z,92.98
2022-10-10T20:31:21.854Z,92.81
2022-10-10T20:33:50.215Z,93.28
2022-10-10T20:36:18.034Z,93.29
2022-10-10T20:38:53.606Z,93.24
2022-10-10T20:41:20.941Z,93.10
2022-10-10T20:43:47.658Z,92.73
2022-10-10T20:46:19.816Z,93.25
2022-10-10T20:48:54.183Z,93.37
2022-10-10T20:51:21.453Z,93.05
2022-10-10T20:53:56.981Z,93.91
2022-10-10T20:56:25.041Z,95.36
2022-10-10T20:58:51.848Z,96.88
2022-10-10T21:01:21.612Z,98.78
2022-10-10T21:03:48.997Z,100.00
2022-10-10T21:06:24.522Z,100.00
2022-10-10T21:08:52.862Z,100.00
2022-10-10T21:11:20.647Z,100.00
2022-10-10T21:13:56.091Z,100.00
2022-10-10T21:16:30.172Z,100.00
2022-10-10T21:18:58.620Z,100.00
2022-10-10T21:21:27.696Z,100.00
2022-10-10T21:23:56.583Z,100.00
2022-10-10T21:26:26.602Z,100.00
2022-10-10T21:28:53.888Z,100.00
2022-10-10T21:31:29.093Z,100.00
2022-10-10T21:33:56.399Z,100.00
2022-10-10T21:36:25.430Z,100.00
2022-10-10T21:38:52.511Z,100.00
2022-10-10T21:41:20.963Z,100.00
2022-10-10T21:43:50.066Z,100.00
2022-10-10T21:46:19.519Z,100.00
2022-10-10T21:48:48.278Z,100.00
2022-10-10T21:51:18.239Z,100.00
2022-10-10T21:53:44.894Z,100.00
2022-10-10T21:56:11.866Z,100.00
2022-10-10T21:58:41.219Z,100.00
2022-10-10T22:01:11.970Z,100.00
2022-10-10T22:03:38.627Z,100.00
2022-10-10T22:06:10.178Z,100.00
2022-10-10T22:08:39.062Z,100.00
2022-10-10T22:11:10.564Z,100.00
2022-10-10T22:13:37.326Z,100.00
2022-10-10T22:16:04.590Z,100.00
2022-10-10T22:18:31.873Z,100.00
2022-10-10T22:21:01.483Z,100.00
2022-10-10T22:23:28.058Z,100.00
2022-10-10T22:25:56.181Z,100.00
2022-10-10T22:28:23.000Z,100.00
2022-10-10T22:30:52.368Z,100.00
2022-10-10T22:33:21.114Z,100.00
2022-10-10T22:35:47.679Z,100.00
2022-10-10T22:38:14.202Z,100.00
2022-10-10T22:40:40.779Z,100.00
2022-10-10T22:43:07.353Z,100.00
2022-10-10T22:45:34.159Z,100.00
2022-10-10T22:48:00.970Z,100.00
2022-10-10T22:50:27.742Z,100.00
2022-10-10T22:52:54.339Z,100.00
2022-10-10T22:55:24.199Z,100.00
2022-10-10T22:57:51.161Z,100.00
2022-10-10T23:00:18.138Z,100.00
2022-10-10T23:02:44.824Z,100.00
2022-10-10T23:05:11.686Z,100.00
2022-10-10T23:07:38.437Z,100.00
2022-10-10T23:10:05.449Z,100.00
2022-10-10T23:12:32.016Z,100.00
2022-10-10T23:14:58.772Z,100.00
2022-10-10T23:17:25.269Z,100.00
2022-10-10T23:19:54.255Z,100.00
2022-10-10T23:22:20.774Z,100.00
2022-10-10T23:24:47.516Z,100.00
2022-10-10T23:27:14.069Z,100.00
2022-10-10T23:29:40.602Z,100.00
2022-10-10T23:32:07.155Z,100.00
2022-10-10T23:34:33.826Z,100.00
2022-10-10T23:37:00.371Z,100.00
2022-10-10T23:39:26.906Z,100.00
2022-10-10T23:41:56.487Z,100.00
2022-10-10T23:44:25.216Z,100.00
2022-10-10T23:46:51.842Z,100.00
2022-10-10T23:49:18.394Z,100.00
2022-10-10T23:51:44.968Z,100.00
2022-10-10T23:54:11.484Z,100.00
2022-10-10T23:56:38.055Z,100.00
2022-10-10T23:59:04.599Z,100.00
